createdAt,value
2018-08-23T00:00:39.265Z,68.73
2018-08-23T00:04:07.127Z,68.71
2018-08-23T00:07:31.571Z,68.86
2018-08-23T00:10:55.980Z,68.91
2018-08-23T00:14:20.449Z,68.80
2018-08-23T00:17:47.649Z,68.62
2018-08-23T00:21:17.163Z,68.42
2018-08-23T00:24:41.641Z,68.52
2018-08-23T00:28:06.598Z,68.87
2018-08-23T00:31:34.171Z,69.03
2018-08-23T00:34:58.825Z,69.53
2018-08-23T00:38:23.238Z,69.14
2018-08-23T00:41:52.792Z,69.30
2018-08-23T00:45:19.032Z,69.83
2018-08-23T00:48:43.965Z,69.24
2018-08-23T00:52:08.430Z,68.97
2018-08-23T00:55:32.867Z,69.71
2018-08-23T00:59:00.665Z,70.21
2018-08-23T01:02:25.050Z,69.87
2018-08-23T01:05:49.462Z,70.97
2018-08-23T01:09:14.546Z,70.43
2018-08-23T01:12:49.445Z,70.98
2018-08-23T01:16:14.906Z,71.22
2018-08-23T01:19:44.580Z,70.84
2018-08-23T01:23:09.132Z,70.96
2018-08-23T01:26:35.638Z,71.59
2018-08-23T01:30:00.111Z,71.36
2018-08-23T01:33:24.548Z,72.19
2018-08-23T01:36:48.994Z,72.46
2018-08-23T01:40:13.429Z,72.97
2018-08-23T01:43:37.883Z,73.00
2018-08-23T01:47:03.466Z,72.85
2018-08-23T01:50:28.175Z,73.48
2018-08-23T01:53:52.642Z,72.72
2018-08-23T01:57:22.404Z,73.07
2018-08-23T02:00:49.055Z,72.85
2018-08-23T02:04:13.566Z,72.38
2018-08-23T02:07:37.970Z,73.14
2018-08-23T02:11:02.478Z,73.56
2018-08-23T02:14:28.370Z,73.88
2018-08-23T02:17:58.881Z,73.96
2018-08-23T02:21:23.352Z,73.39
2018-08-23T02:24:49.501Z,74.08
2018-08-23T02:28:13.916Z,73.38
2018-08-23T02:31:38.494Z,74.04
2018-08-23T02:35:06.006Z,73.54
2018-08-23T02:38:30.693Z,73.35
2018-08-23T02:41:55.132Z,73.78
2018-08-23T02:45:19.578Z,74.29
2018-08-23T02:48:44.054Z,74.46
2018-08-23T02:52:08.503Z,74.69
2018-08-23T02:55:39.328Z,73.86
2018-08-23T02:59:06.653Z,74.33
2018-08-23T03:02:31.125Z,74.37
2018-08-23T03:05:55.603Z,74.49
2018-08-23T03:09:23.892Z,74.65
2018-08-23T03:12:48.394Z,74.62
2018-08-23T03:16:13.302Z,75.39
2018-08-23T03:19:37.775Z,74.80
2018-08-23T03:23:02.205Z,75.11
2018-08-23T03:26:26.609Z,75.22
2018-08-23T03:29:51.278Z,74.55
2018-08-23T03:33:15.719Z,75.08
2018-08-23T03:36:40.153Z,75.37
2018-08-23T03:40:04.875Z,75.49
2018-08-23T03:43:29.324Z,75.22
2018-08-23T03:46:55.120Z,75.33
2018-08-23T03:50:19.540Z,75.49
2018-08-23T03:53:49.450Z,75.38
2018-08-23T03:57:16.606Z,75.71
2018-08-23T04:01:00.419Z,75.60
2018-08-23T04:04:24.812Z,75.15
2018-08-23T04:07:49.239Z,74.42
2018-08-23T04:11:13.721Z,74.37
2018-08-23T04:14:38.505Z,74.60
2018-08-23T04:18:18.300Z,75.03
2018-08-23T04:21:42.719Z,75.47
2018-08-23T04:25:14.049Z,74.90
2018-08-23T04:28:38.605Z,76.03
2018-08-23T04:32:04.451Z,76.04
2018-08-23T04:35:29.849Z,76.68
2018-08-23T04:38:58.366Z,75.58
2018-08-23T04:42:22.809Z,76.24
2018-08-23T04:45:47.293Z,76.55
2018-08-23T04:49:11.810Z,76.22
2018-08-23T04:52:36.228Z,75.90
2018-08-23T04:56:00.635Z,75.62
2018-08-23T04:59:25.096Z,75.74
2018-08-23T05:02:49.731Z,76.82
2018-08-23T05:06:14.241Z,75.57
2018-08-23T05:09:38.668Z,75.77
2018-08-23T05:13:03.126Z,76.07
2018-08-23T05:16:27.600Z,76.07
2018-08-23T05:19:52.110Z,76.34
2018-08-23T05:23:16.595Z,76.36
2018-08-23T05:26:41.407Z,76.17
2018-08-23T05:30:06.062Z,75.95
2018-08-23T05:33:30.492Z,75.77
2018-08-23T05:36:54.912Z,74.88
2018-08-23T05:40:19.337Z,75.01
2018-08-23T05:43:43.844Z,75.51
2018-08-23T05:47:08.308Z,75.43
2018-08-23T05:50:36.021Z,74.74
2018-08-23T05:54:00.448Z,73.69
2018-08-23T05:57:24.852Z,73.39
2018-08-23T06:00:49.264Z,71.92
2018-08-23T06:04:14.404Z,72.82
2018-08-23T06:07:38.873Z,71.99
2018-08-23T06:11:09.079Z,71.95
2018-08-23T06:14:33.480Z,72.15
2018-08-23T06:17:57.915Z,72.03
2018-08-23T06:21:22.414Z,72.34
2018-08-23T06:24:46.821Z,72.15
2018-08-23T06:28:24.203Z,71.40
2018-08-23T06:32:00.487Z,71.00
2018-08-23T06:35:26.485Z,71.26
2018-08-23T06:38:56.205Z,70.64
2018-08-23T06:42:21.043Z,70.29
2018-08-23T06:45:45.469Z,70.53
2018-08-23T06:49:09.897Z,69.96
2018-08-23T06:52:39.487Z,68.87
2018-08-23T06:56:03.917Z,68.90
2018-08-23T06:59:28.436Z,67.32
2018-08-23T07:02:52.872Z,67.15
2018-08-23T07:06:17.339Z,66.78
2018-08-23T07:09:41.762Z,65.50
2018-08-23T07:13:07.268Z,66.11
2018-08-23T07:16:32.507Z,65.90
2018-08-23T07:20:00.321Z,64.55
2018-08-23T07:23:34.609Z,64.77
2018-08-23T07:26:59.013Z,65.80
2018-08-23T07:30:23.452Z,65.07
2018-08-23T07:33:52.643Z,64.24
2018-08-23T07:37:18.394Z,63.95
2018-08-23T07:40:42.802Z,63.36
2018-08-23T07:44:07.279Z,62.51
2018-08-23T07:47:32.528Z,63.52
2018-08-23T07:50:57.011Z,64.19
2018-08-23T07:54:23.220Z,63.81
2018-08-23T07:57:47.812Z,63.24
2018-08-23T08:01:14.224Z,62.33
2018-08-23T08:04:38.639Z,62.31
2018-08-23T08:08:03.253Z,61.78
2018-08-23T08:11:30.096Z,62.30
2018-08-23T08:14:54.612Z,60.50
2018-08-23T08:18:22.786Z,60.22
2018-08-23T08:21:47.282Z,59.59
2018-08-23T08:25:19.129Z,59.02
2018-08-23T08:28:43.531Z,59.96
2018-08-23T08:32:10.050Z,59.16
2018-08-23T08:35:34.500Z,58.12
2018-08-23T08:38:59.371Z,57.51
2018-08-23T08:42:34.002Z,56.70
2018-08-23T08:45:59.509Z,57.48
2018-08-23T08:49:23.995Z,58.26
2018-08-23T08:52:48.396Z,56.35
2018-08-23T08:56:12.884Z,56.96
2018-08-23T08:59:37.329Z,55.85
2018-08-23T09:03:01.753Z,56.31
2018-08-23T09:06:46.669Z,57.32
2018-08-23T09:10:10.778Z,56.03
2018-08-23T09:13:40.339Z,54.18
2018-08-23T09:17:26.888Z,54.30
2018-08-23T09:20:54.895Z,53.38
2018-08-23T09:24:28.745Z,53.70
2018-08-23T09:27:53.165Z,53.18
2018-08-23T09:31:17.679Z,51.60
2018-08-23T09:34:42.645Z,50.07
2018-08-23T09:38:14.895Z,49.91
2018-08-23T09:41:39.451Z,48.18
2018-08-23T09:45:17.067Z,48.49
2018-08-23T09:48:41.485Z,50.94
2018-08-23T09:52:11.571Z,50.87
2018-08-23T09:55:35.968Z,49.60
2018-08-23T09:59:00.513Z,50.42
2018-08-23T10:02:30.144Z,48.73
2018-08-23T10:05:59.745Z,48.08
2018-08-23T10:09:24.533Z,46.48
2018-08-23T10:12:54.274Z,46.95
2018-08-23T10:16:24.032Z,48.30
2018-08-23T10:19:53.605Z,49.77
2018-08-23T10:23:26.095Z,49.40
2018-08-23T10:26:50.478Z,46.63
2018-08-23T10:30:14.973Z,42.38
2018-08-23T10:33:39.396Z,39.91
2018-08-23T10:37:03.760Z,39.51
2018-08-23T10:40:28.200Z,36.61
2018-08-23T10:43:52.609Z,36.54
2018-08-23T10:47:22.163Z,37.28
2018-08-23T10:50:48.196Z,42.05
2018-08-23T10:54:12.597Z,47.48
2018-08-23T10:57:37.034Z,40.16
2018-08-23T11:01:01.532Z,36.81
2018-08-23T11:04:25.946Z,36.91
2018-08-23T11:08:57.086Z,35.12
2018-08-23T11:12:26.653Z,33.43
2018-08-23T11:15:55.130Z,33.89
2018-08-23T11:19:24.751Z,37.29
2018-08-23T11:22:49.221Z,38.54
2018-08-23T11:26:22.182Z,41.66
2018-08-23T11:29:46.660Z,43.27
2018-08-23T11:33:11.103Z,43.99
2018-08-23T11:36:35.521Z,42.99
2018-08-23T11:39:59.989Z,41.68
2018-08-23T11:43:24.423Z,42.00
2018-08-23T11:46:48.966Z,43.38
2018-08-23T11:50:13.391Z,41.71
2018-08-23T11:53:38.056Z,39.96
2018-08-23T11:57:02.245Z,39.86
2018-08-23T12:00:26.733Z,41.07
2018-08-23T12:03:51.191Z,41.73
2018-08-23T12:07:15.624Z,42.62
2018-08-23T12:10:40.055Z,41.00
2018-08-23T12:14:04.664Z,41.43
2018-08-23T12:17:29.078Z,40.81
2018-08-23T12:20:53.496Z,40.75
2018-08-23T12:24:17.969Z,41.80
2018-08-23T12:27:42.778Z,39.65
2018-08-23T12:31:07.453Z,39.06
2018-08-23T12:34:36.187Z,38.33
2018-08-23T12:38:05.877Z,37.66
2018-08-23T12:42:35.171Z,38.85
2018-08-23T12:46:04.417Z,41.21
2018-08-23T12:49:28.893Z,37.67
2018-08-23T12:52:53.411Z,38.31
2018-08-23T12:56:17.923Z,36.28
2018-08-23T12:59:42.419Z,35.90
2018-08-23T13:03:07.731Z,34.04
2018-08-23T13:06:32.132Z,33.73
2018-08-23T13:09:56.553Z,32.69
2018-08-23T13:13:20.997Z,33.42
2018-08-23T13:16:45.531Z,33.31
2018-08-23T13:20:09.957Z,31.48
2018-08-23T13:23:34.416Z,29.14
2018-08-23T13:26:58.869Z,30.57
2018-08-23T13:30:23.329Z,27.92
2018-08-23T13:33:47.773Z,29.37
2018-08-23T13:37:12.200Z,29.49
2018-08-23T13:40:36.632Z,29.91
2018-08-23T13:44:01.155Z,27.74
2018-08-23T13:47:25.532Z,27.08
2018-08-23T13:50:49.954Z,25.79
2018-08-23T13:54:14.384Z,24.70
2018-08-23T13:57:38.857Z,24.55
2018-08-23T14:01:03.302Z,25.13
2018-08-23T14:04:27.723Z,24.75
2018-08-23T14:07:52.156Z,27.66
2018-08-23T14:11:16.690Z,24.81
2018-08-23T14:14:41.814Z,25.96
2018-08-23T14:18:06.287Z,24.05
2018-08-23T14:21:30.751Z,23.35
2018-08-23T14:24:55.247Z,24.80
2018-08-23T14:28:19.825Z,25.25
2018-08-23T14:31:44.235Z,26.22
2018-08-23T14:35:08.739Z,25.12
2018-08-23T14:38:33.270Z,25.96
2018-08-23T14:41:57.665Z,25.06
2018-08-23T14:45:27.251Z,24.10
2018-08-23T14:48:51.697Z,25.30
2018-08-23T14:52:16.178Z,26.29
2018-08-23T14:55:45.770Z,27.98
2018-08-23T14:59:10.275Z,28.62
2018-08-23T15:02:34.788Z,28.00
2018-08-23T15:05:59.211Z,27.30
2018-08-23T15:09:28.010Z,25.09
2018-08-23T15:12:52.568Z,25.02
2018-08-23T15:16:17.056Z,25.56
2018-08-23T15:19:41.685Z,26.07
2018-08-23T15:23:06.489Z,25.09
2018-08-23T15:26:31.056Z,26.44
2018-08-23T15:29:55.306Z,25.09
2018-08-23T15:33:19.719Z,24.08
2018-08-23T15:36:44.185Z,24.04
2018-08-23T15:40:08.687Z,26.26
2018-08-23T15:43:33.111Z,26.10
2018-08-23T15:46:57.518Z,26.37
2018-08-23T15:50:23.545Z,25.29
2018-08-23T15:53:47.915Z,29.31
2018-08-23T15:57:12.373Z,32.76
2018-08-23T16:00:39.808Z,35.42
2018-08-23T16:04:04.390Z,33.32
2018-08-23T16:07:28.790Z,33.26
2018-08-23T16:10:53.228Z,34.95
2018-08-23T16:14:17.709Z,33.16
2018-08-23T16:17:47.300Z,31.55
2018-08-23T16:21:11.711Z,30.31
2018-08-23T16:24:36.117Z,33.84
2018-08-23T16:28:06.136Z,37.05
2018-08-23T16:31:30.769Z,38.44
2018-08-23T16:34:55.270Z,37.84
2018-08-23T16:38:19.682Z,37.02
2018-08-23T16:41:44.153Z,36.70
2018-08-23T16:45:08.665Z,37.52
2018-08-23T16:48:33.097Z,36.13
2018-08-23T16:51:57.502Z,37.13
2018-08-23T16:55:21.923Z,38.87
2018-08-23T16:58:46.345Z,36.21
2018-08-23T17:02:10.958Z,38.45
2018-08-23T17:05:35.410Z,38.10
2018-08-23T17:09:00.149Z,37.66
2018-08-23T17:12:24.525Z,37.42
2018-08-23T17:15:54.117Z,38.80
2018-08-23T17:19:18.609Z,39.63
2018-08-23T17:22:44.581Z,40.12
2018-08-23T17:26:09.033Z,40.97
2018-08-23T17:29:33.467Z,42.69
2018-08-23T17:32:57.900Z,42.64
2018-08-23T17:36:22.336Z,42.89
2018-08-23T17:39:46.774Z,42.38
2018-08-23T17:43:11.213Z,43.68
2018-08-23T17:46:35.672Z,44.13
2018-08-23T17:50:00.111Z,45.02
2018-08-23T17:53:24.553Z,43.99
2018-08-23T17:56:49.009Z,45.67
2018-08-23T18:00:13.482Z,44.41
2018-08-23T18:03:37.913Z,45.52
2018-08-23T18:07:02.369Z,48.77
2018-08-23T18:10:28.022Z,45.30
2018-08-23T18:13:52.449Z,46.01
2018-08-23T18:17:16.895Z,46.22
2018-08-23T18:20:41.296Z,48.20
2018-08-23T18:24:05.883Z,47.49
2018-08-23T18:27:30.278Z,47.38
2018-08-23T18:30:54.716Z,50.20
2018-08-23T18:34:19.178Z,47.37
2018-08-23T18:37:43.785Z,47.45
2018-08-23T18:41:08.079Z,50.43
2018-08-23T18:44:32.500Z,48.85
2018-08-23T18:47:56.943Z,51.58
2018-08-23T18:51:21.356Z,50.20
2018-08-23T18:54:45.771Z,52.57
2018-08-23T18:58:10.232Z,50.79
2018-08-23T19:01:34.679Z,54.28
2018-08-23T19:04:59.117Z,55.74
2018-08-23T19:08:23.559Z,55.56
2018-08-23T19:11:48.019Z,55.40
2018-08-23T19:15:12.554Z,53.54
2018-08-23T19:18:37.379Z,53.33
2018-08-23T19:22:02.523Z,54.68
2018-08-23T19:25:27.619Z,53.58
2018-08-23T19:28:52.798Z,52.76
2018-08-23T19:32:18.113Z,54.70
2018-08-23T19:35:42.545Z,56.13
2018-08-23T19:39:11.503Z,52.55
2018-08-23T19:42:36.078Z,52.25
2018-08-23T19:46:05.715Z,51.59
2018-08-23T19:49:35.413Z,51.46
2018-08-23T19:52:59.935Z,50.90
2018-08-23T19:56:24.428Z,51.12
2018-08-23T19:59:48.937Z,51.07
2018-08-23T20:03:13.391Z,51.40
2018-08-23T20:06:37.962Z,51.06
2018-08-23T20:10:02.392Z,51.92
2018-08-23T20:13:26.986Z,51.57
2018-08-23T20:16:51.417Z,51.51
2018-08-23T20:20:17.017Z,51.40
2018-08-23T20:23:41.480Z,51.89
2018-08-23T20:27:05.953Z,51.85
2018-08-23T20:30:30.404Z,52.38
2018-08-23T20:33:54.832Z,52.26
2018-08-23T20:37:19.301Z,52.75
2018-08-23T20:40:43.716Z,53.30
2018-08-23T20:44:08.665Z,53.12
2018-08-23T20:47:33.108Z,52.60
2018-08-23T20:50:57.580Z,53.18
2018-08-23T20:54:22.020Z,52.46
2018-08-23T20:57:46.517Z,53.30
2018-08-23T21:01:10.963Z,53.99
2018-08-23T21:04:39.279Z,53.48
2018-08-23T21:08:03.821Z,53.73
2018-08-23T21:11:28.224Z,53.54
2018-08-23T21:14:52.645Z,53.80
2018-08-23T21:18:17.053Z,53.52
2018-08-23T21:21:41.452Z,53.86
2018-08-23T21:25:05.937Z,53.93
2018-08-23T21:28:30.358Z,55.34
2018-08-23T21:31:54.784Z,54.45
2018-08-23T21:35:19.224Z,55.71
2018-08-23T21:38:43.657Z,55.89
2018-08-23T21:42:08.113Z,54.83
2018-08-23T21:45:32.528Z,55.90
2018-08-23T21:48:56.995Z,55.27
2018-08-23T21:52:21.411Z,55.66
2018-08-23T21:55:45.831Z,55.67
2018-08-23T21:59:10.393Z,55.38
2018-08-23T22:02:34.874Z,55.36
2018-08-23T22:05:59.284Z,54.07
2018-08-23T22:09:23.730Z,55.86
2018-08-23T22:12:48.180Z,56.18
2018-08-23T22:16:12.632Z,55.59
2018-08-23T22:19:37.051Z,55.46
2018-08-23T22:23:01.469Z,55.63
2018-08-23T22:26:25.933Z,55.40
2018-08-23T22:29:50.314Z,55.95
2018-08-23T22:33:14.774Z,55.63
2018-08-23T22:36:39.164Z,55.89
2018-08-23T22:40:03.591Z,55.99
2018-08-23T22:43:28.015Z,56.33
2018-08-23T22:46:52.425Z,57.20
2018-08-23T22:50:16.854Z,57.76
2018-08-23T22:53:41.376Z,58.79
2018-08-23T22:57:05.856Z,58.21
2018-08-23T23:00:35.625Z,58.85
2018-08-23T23:04:05.309Z,59.69
2018-08-23T23:07:29.729Z,60.34
2018-08-23T23:10:54.076Z,59.72
2018-08-23T23:14:18.503Z,59.09
2018-08-23T23:17:42.953Z,59.65
2018-08-23T23:21:07.348Z,60.65
2018-08-23T23:24:36.756Z,59.92
2018-08-23T23:28:01.175Z,60.71
2018-08-23T23:31:25.597Z,62.66
2018-08-23T23:34:49.987Z,62.81
2018-08-23T23:38:14.367Z,63.55
2018-08-23T23:41:38.799Z,67.05
2018-08-23T23:45:03.215Z,69.33
2018-08-23T23:48:27.662Z,73.45
2018-08-23T23:51:52.090Z,73.32
2018-08-23T23:55:16.549Z,74.11
2018-08-23T23:58:40.994Z,76.00
